createdAt,value
2023-07-26T00:02:02.238Z,98593.38
2023-07-26T00:04:48.409Z,98608.81
2023-07-26T00:07:34.876Z,98605.25
2023-07-26T00:10:21.162Z,98633.69
2023-07-26T00:13:07.388Z,98602.94
2023-07-26T00:15:54.103Z,98618.38
2023-07-26T00:18:41.052Z,98619.28
2023-07-26T00:21:28.166Z,98616.84
2023-07-26T00:24:14.373Z,98655.56
2023-07-26T00:27:00.906Z,98635.03
2023-07-26T00:29:47.829Z,98655.81
2023-07-26T00:32:34.063Z,98652.19
2023-07-26T00:35:26.198Z,98637.91
2023-07-26T00:38:12.482Z,98619.03
2023-07-26T00:40:58.931Z,98601.91
2023-07-26T00:43:46.069Z,98670.56
2023-07-26T00:46:32.923Z,98653.56
2023-07-26T00:49:20.086Z,98651.16
2023-07-26T00:52:06.863Z,98619.41
2023-07-26T00:54:56.854Z,98681.50
2023-07-26T00:57:45.025Z,98665.19
2023-07-26T01:00:31.700Z,98685.00
2023-07-26T01:03:18.760Z,98685.03
2023-07-26T01:06:37.362Z,98685.03
2023-07-26T01:09:32.832Z,98692.09
2023-07-26T01:12:33.281Z,98683.53
2023-07-26T01:15:27.147Z,98663.00
2023-07-26T01:18:16.054Z,98692.25
2023-07-26T01:21:02.741Z,98635.91
2023-07-26T01:23:49.142Z,98695.91
2023-07-26T01:26:36.244Z,98675.31
2023-07-26T01:29:22.830Z,98655.63
2023-07-26T01:32:11.558Z,98673.72
2023-07-26T01:34:58.521Z,98678.06
2023-07-26T01:37:45.178Z,98654.84
2023-07-26T01:40:31.794Z,98705.47
2023-07-26T01:43:18.592Z,98694.28
2023-07-26T01:46:04.969Z,98704.59
2023-07-26T01:48:51.999Z,98708.16
2023-07-26T01:51:38.276Z,98708.06
2023-07-26T01:54:24.784Z,98707.13
2023-07-26T01:57:11.230Z,98701.03
2023-07-26T01:59:58.697Z,98715.56
2023-07-26T02:02:45.428Z,98706.19
2023-07-26T02:05:32.112Z,98705.38
2023-07-26T02:08:18.921Z,98688.28
2023-07-26T02:11:05.454Z,98713.88
2023-07-26T02:13:52.038Z,98706.19
2023-07-26T02:16:38.414Z,98701.94
2023-07-26T02:19:24.884Z,98706.88
2023-07-26T02:22:11.438Z,98711.31
2023-07-26T02:24:58.217Z,98718.28
2023-07-26T02:27:44.620Z,98703.81
2023-07-26T02:30:31.352Z,98663.38
2023-07-26T02:33:17.822Z,98721.09
2023-07-26T02:36:04.351Z,98718.53
2023-07-26T02:38:51.710Z,98719.41
2023-07-26T02:41:38.277Z,98724.72
2023-07-26T02:44:24.814Z,98731.50
2023-07-26T02:47:11.132Z,98737.69
2023-07-26T02:49:57.572Z,98696.41
2023-07-26T02:52:43.950Z,98703.31
2023-07-26T02:55:30.675Z,98695.69
2023-07-26T02:58:16.833Z,98721.50
2023-07-26T03:01:03.790Z,98669.38
2023-07-26T03:03:50.247Z,98687.53
2023-07-26T03:06:36.730Z,98752.81
2023-07-26T03:09:23.157Z,98743.38
2023-07-26T03:12:09.575Z,98756.31
2023-07-26T03:14:55.842Z,98741.84
2023-07-26T03:17:42.149Z,98730.09
2023-07-26T03:20:28.691Z,98690.69
2023-07-26T03:23:15.413Z,98719.97
2023-07-26T03:26:03.203Z,98768.06
2023-07-26T03:28:49.774Z,98727.00
2023-07-26T03:31:35.994Z,98735.59
2023-07-26T03:34:22.691Z,98782.75
2023-07-26T03:37:09.477Z,98782.00
2023-07-26T03:39:55.808Z,98775.16
2023-07-26T03:42:43.122Z,98695.44
2023-07-26T03:45:29.804Z,98777.06
2023-07-26T03:48:15.991Z,98789.94
2023-07-26T03:51:02.191Z,98785.66
2023-07-26T03:53:48.668Z,98796.78
2023-07-26T03:56:35.467Z,98765.09
2023-07-26T03:59:21.970Z,98799.38
2023-07-26T04:02:09.410Z,98802.78
2023-07-26T04:04:56.064Z,98803.59
2023-07-26T04:07:44.078Z,98765.84
2023-07-26T04:10:30.752Z,98811.31
2023-07-26T04:13:17.363Z,98752.78
2023-07-26T04:16:15.295Z,98784.41
2023-07-26T04:19:01.559Z,98774.13
2023-07-26T04:21:48.192Z,98768.94
2023-07-26T04:24:35.350Z,98810.97
2023-07-26T04:27:21.515Z,98802.25
2023-07-26T04:30:08.428Z,98781.53
2023-07-26T04:32:55.017Z,98810.66
2023-07-26T04:35:41.422Z,98814.81
2023-07-26T04:38:27.857Z,98769.94
2023-07-26T04:41:14.446Z,98803.34
2023-07-26T04:44:00.729Z,98816.94
2023-07-26T04:46:47.296Z,98811.56
2023-07-26T04:49:33.866Z,98813.13
2023-07-26T04:52:20.106Z,98825.84
2023-07-26T04:55:06.999Z,98811.28
2023-07-26T04:57:53.636Z,98830.00
2023-07-26T05:00:41.039Z,98826.38
2023-07-26T05:03:27.532Z,98822.06
2023-07-26T05:06:14.251Z,98827.03
2023-07-26T05:09:01.084Z,98816.72
2023-07-26T05:11:47.359Z,98831.38
2023-07-26T05:14:34.049Z,98838.25
2023-07-26T05:17:20.363Z,98842.63
2023-07-26T05:20:07.186Z,98809.22
2023-07-26T05:22:53.646Z,98834.97
2023-07-26T05:25:41.281Z,98800.03
2023-07-26T05:28:29.132Z,98825.75
2023-07-26T05:31:15.897Z,98842.03
2023-07-26T05:34:02.454Z,98853.13
2023-07-26T05:36:48.589Z,98813.75
2023-07-26T05:39:35.063Z,98857.44
2023-07-26T05:42:21.227Z,98859.09
2023-07-26T05:45:08.302Z,98836.59
2023-07-26T05:47:54.747Z,98831.31
2023-07-26T05:50:41.093Z,98835.63
2023-07-26T05:53:27.324Z,98862.81
2023-07-26T05:56:15.245Z,98827.84
2023-07-26T05:59:01.570Z,98867.06
2023-07-26T06:01:47.989Z,98854.09
2023-07-26T06:04:35.149Z,98845.31
2023-07-26T06:07:21.934Z,98876.19
2023-07-26T06:10:08.311Z,98864.78
2023-07-26T06:12:54.627Z,98878.63
2023-07-26T06:15:41.693Z,98869.22
2023-07-26T06:18:27.922Z,98866.72
2023-07-26T06:21:14.777Z,98876.88
2023-07-26T06:24:01.270Z,98875.03
2023-07-26T06:26:47.592Z,98854.63
2023-07-26T06:29:36.276Z,98888.53
2023-07-26T06:32:22.455Z,98897.19
2023-07-26T06:35:12.478Z,98847.09
2023-07-26T06:37:59.068Z,98881.47
2023-07-26T06:40:45.436Z,98839.34
2023-07-26T06:43:31.966Z,98868.00
2023-07-26T06:46:18.384Z,98847.59
2023-07-26T06:49:04.962Z,98867.28
2023-07-26T06:51:52.220Z,98906.00
2023-07-26T06:54:38.735Z,98881.19
2023-07-26T06:57:25.496Z,98914.16
2023-07-26T07:00:15.356Z,98908.66
2023-07-26T07:03:04.178Z,98907.88
2023-07-26T07:05:50.527Z,98912.41
2023-07-26T07:08:38.470Z,98921.13
2023-07-26T07:11:24.945Z,98856.84
2023-07-26T07:14:11.648Z,98881.75
2023-07-26T07:16:58.126Z,98897.28
2023-07-26T07:19:47.473Z,98911.16
2023-07-26T07:22:36.998Z,98870.91
2023-07-26T07:25:23.672Z,98899.13
2023-07-26T07:28:10.004Z,98850.16
2023-07-26T07:30:56.235Z,98919.75
2023-07-26T07:33:42.670Z,98914.50
2023-07-26T07:36:29.271Z,98901.59
2023-07-26T07:39:15.865Z,98921.03
2023-07-26T07:42:02.579Z,98906.88
2023-07-26T07:44:48.887Z,98919.53
2023-07-26T07:47:35.284Z,98912.44
2023-07-26T07:50:21.836Z,98898.69
2023-07-26T07:53:08.485Z,98913.31
2023-07-26T07:55:54.814Z,98883.00
2023-07-26T07:58:41.212Z,98900.13
2023-07-26T08:01:27.561Z,98914.34
2023-07-26T08:04:14.122Z,98898.78
2023-07-26T08:07:00.420Z,98873.69
2023-07-26T08:09:47.031Z,98890.06
2023-07-26T08:12:35.945Z,98916.56
2023-07-26T08:15:22.271Z,98921.84
2023-07-26T08:18:09.391Z,98937.03
2023-07-26T08:20:55.975Z,98898.16
2023-07-26T08:23:42.162Z,98893.59
2023-07-26T08:26:28.882Z,98929.88
2023-07-26T08:29:16.601Z,98917.38
2023-07-26T08:32:02.976Z,98897.72
2023-07-26T08:34:49.438Z,98909.84
2023-07-26T08:37:35.870Z,98914.84
2023-07-26T08:40:22.185Z,98906.09
2023-07-26T08:43:09.238Z,98914.44
2023-07-26T08:45:55.835Z,98933.81
2023-07-26T08:48:43.289Z,98921.31
2023-07-26T08:51:31.255Z,98925.53
2023-07-26T08:54:18.600Z,98887.72
2023-07-26T08:57:05.072Z,98912.66
2023-07-26T08:59:51.853Z,98920.00
2023-07-26T09:02:41.038Z,98931.66
2023-07-26T09:05:27.969Z,98905.47
2023-07-26T09:08:14.538Z,98919.53
2023-07-26T09:11:04.176Z,98907.31
2023-07-26T09:13:54.799Z,98914.16
2023-07-26T09:16:41.323Z,98930.59
2023-07-26T09:19:29.870Z,98939.84
2023-07-26T09:22:16.186Z,98948.59
2023-07-26T09:25:03.632Z,98936.03
2023-07-26T09:27:54.141Z,98941.81
2023-07-26T09:30:42.780Z,98914.19
2023-07-26T09:33:30.184Z,98932.47
2023-07-26T09:36:16.499Z,98900.50
2023-07-26T09:39:04.336Z,98905.94
2023-07-26T09:41:51.881Z,98936.31
2023-07-26T09:44:38.548Z,98878.66
2023-07-26T09:47:40.662Z,98934.28
2023-07-26T09:53:20.324Z,98912.13
2023-07-26T09:56:07.401Z,98928.84
2023-07-26T09:58:53.926Z,98908.41
2023-07-26T10:01:45.350Z,98926.91
2023-07-26T10:04:55.068Z,98929.81
2023-07-26T10:07:41.898Z,98930.44
2023-07-26T10:10:29.141Z,98925.47
2023-07-26T10:13:19.526Z,98929.25
2023-07-26T10:16:09.574Z,98924.31
2023-07-26T10:18:57.598Z,98889.50
2023-07-26T10:21:44.565Z,98916.00
2023-07-26T10:24:31.908Z,98879.66
2023-07-26T10:27:18.822Z,98890.41
2023-07-26T10:30:06.546Z,98892.84
2023-07-26T10:32:52.894Z,98917.50
2023-07-26T10:35:42.683Z,98903.38
2023-07-26T10:38:29.202Z,98883.47
2023-07-26T10:41:27.104Z,98922.63
2023-07-26T10:44:13.760Z,98885.31
2023-07-26T10:47:04.480Z,98924.00
2023-07-26T10:49:51.163Z,98858.91
2023-07-26T10:52:38.708Z,98930.00
2023-07-26T10:55:27.735Z,98896.88
2023-07-26T10:58:14.194Z,98912.25
2023-07-26T11:01:04.654Z,98903.03
2023-07-26T11:03:52.033Z,98888.91
2023-07-26T11:06:57.054Z,98913.09
2023-07-26T11:09:44.192Z,98863.28
2023-07-26T11:12:30.485Z,98905.69
2023-07-26T11:16:12.740Z,98890.88
2023-07-26T11:18:41.409Z,98875.91
2023-07-26T11:21:27.970Z,98901.88
2023-07-26T11:24:14.491Z,98902.63
2023-07-26T11:27:06.619Z,98883.75
2023-07-26T11:29:53.805Z,98884.84
2023-07-26T11:32:47.646Z,98880.63
2023-07-26T11:35:42.280Z,98852.91
2023-07-26T11:38:29.039Z,98831.59
2023-07-26T11:41:19.788Z,98848.44
2023-07-26T11:44:06.334Z,98839.75
2023-07-26T11:46:52.613Z,98859.19
2023-07-26T11:49:38.892Z,98871.75
2023-07-26T11:52:26.705Z,98850.25
2023-07-26T11:55:12.949Z,98851.94
2023-07-26T11:58:09.188Z,98862.84
2023-07-26T12:00:56.237Z,98882.00
2023-07-26T12:03:42.769Z,98879.28
2023-07-26T12:06:34.677Z,98847.44
2023-07-26T12:09:21.599Z,98871.94
2023-07-26T12:12:07.991Z,98866.53
2023-07-26T12:14:57.546Z,98865.75
2023-07-26T12:18:04.676Z,98868.53
2023-07-26T12:21:10.141Z,98872.53
2023-07-26T12:24:07.312Z,98857.50
2023-07-26T12:26:53.957Z,98875.28
2023-07-26T12:29:40.792Z,98895.19
2023-07-26T12:32:27.034Z,98826.78
2023-07-26T12:35:21.791Z,98902.03
2023-07-26T12:38:10.136Z,98861.03
2023-07-26T12:40:56.912Z,98865.03
2023-07-26T12:43:45.860Z,98885.31
2023-07-26T12:46:45.876Z,98898.53
2023-07-26T12:49:41.096Z,98891.94
2023-07-26T12:52:28.669Z,98878.22
2023-07-26T12:55:15.204Z,98830.13
2023-07-26T12:58:01.584Z,98893.53
2023-07-26T13:00:49.148Z,98863.13
2023-07-26T13:03:35.751Z,98902.75
2023-07-26T13:06:22.356Z,98891.22
2023-07-26T13:09:08.922Z,98918.28
2023-07-26T13:11:55.334Z,98907.59
2023-07-26T13:14:41.720Z,98877.34
2023-07-26T13:17:28.223Z,98874.66
2023-07-26T13:20:15.458Z,98884.19
2023-07-26T13:23:01.893Z,98876.94
2023-07-26T13:25:48.071Z,98880.09
2023-07-26T13:28:34.471Z,98865.88
2023-07-26T13:31:20.910Z,98835.19
2023-07-26T13:34:07.226Z,98854.19
2023-07-26T13:36:57.877Z,98861.81
2023-07-26T13:39:44.297Z,98894.06
2023-07-26T13:42:30.966Z,98854.16
2023-07-26T13:45:17.122Z,98874.19
2023-07-26T13:48:03.826Z,98863.63
2023-07-26T13:50:50.296Z,98871.69
2023-07-26T13:53:36.678Z,98886.47
2023-07-26T13:56:23.336Z,98830.28
2023-07-26T13:59:09.774Z,98867.09
2023-07-26T14:01:56.236Z,98885.13
2023-07-26T14:04:43.000Z,98814.31
2023-07-26T14:07:29.247Z,98887.09
2023-07-26T14:10:15.617Z,98835.63
2023-07-26T14:13:01.938Z,98872.66
2023-07-26T14:15:48.100Z,98881.47
2023-07-26T14:18:34.698Z,98901.97
2023-07-26T14:21:20.849Z,98874.09
2023-07-26T14:24:07.411Z,98885.00
2023-07-26T14:26:53.845Z,98921.00
2023-07-26T14:29:40.282Z,98904.75
2023-07-26T14:32:26.862Z,98878.09
2023-07-26T14:35:13.218Z,98886.16
2023-07-26T14:37:59.674Z,98899.22
2023-07-26T14:40:46.023Z,98889.94
2023-07-26T14:43:32.562Z,98911.06
2023-07-26T14:46:19.142Z,98869.78
2023-07-26T14:49:05.528Z,98920.56
2023-07-26T14:51:52.226Z,98897.78
2023-07-26T14:54:38.385Z,98900.25
2023-07-26T14:57:24.702Z,98883.56
2023-07-26T15:00:11.859Z,98891.19
2023-07-26T15:02:58.466Z,98863.19
2023-07-26T15:05:46.191Z,98864.03
2023-07-26T15:08:32.761Z,98901.75
2023-07-26T15:11:19.348Z,98918.44
2023-07-26T15:14:06.217Z,98943.34
2023-07-26T15:16:52.899Z,98926.56
2023-07-26T15:19:39.294Z,98928.00
2023-07-26T15:22:25.681Z,98918.97
2023-07-26T15:25:12.117Z,98918.19
2023-07-26T15:27:58.271Z,98924.50
2023-07-26T15:30:44.859Z,98895.50
2023-07-26T15:33:31.869Z,98934.81
2023-07-26T15:36:18.309Z,98915.81
2023-07-26T15:39:09.740Z,98941.84
2023-07-26T15:45:00.642Z,98915.50
2023-07-26T15:47:48.033Z,98934.69
2023-07-26T15:50:34.306Z,98918.75
2023-07-26T15:53:22.069Z,98911.94
2023-07-26T15:56:08.379Z,98921.94
2023-07-26T15:58:54.889Z,98936.59
2023-07-26T16:01:42.056Z,98907.09
2023-07-26T16:04:28.877Z,98905.78
2023-07-26T16:07:15.614Z,98897.09
2023-07-26T16:10:02.542Z,98908.81
2023-07-26T16:12:49.399Z,98845.16
2023-07-26T16:15:36.716Z,98894.88
2023-07-26T16:19:12.585Z,98920.19
2023-07-26T16:21:51.026Z,98916.75
2023-07-26T16:24:37.831Z,98872.81
2023-07-26T16:27:24.143Z,98864.47
2023-07-26T16:30:10.931Z,98895.94
2023-07-26T16:32:57.658Z,98911.72
2023-07-26T16:35:44.435Z,98869.47
2023-07-26T16:38:30.926Z,98883.84
2023-07-26T16:41:17.616Z,98895.09
2023-07-26T16:44:03.972Z,98923.16
2023-07-26T16:47:06.885Z,98892.47
2023-07-26T16:49:55.222Z,98898.34
2023-07-26T16:52:41.840Z,98923.44
2023-07-26T16:55:28.437Z,98899.72
2023-07-26T16:58:14.993Z,98911.94
2023-07-26T17:01:03.044Z,98911.81
2023-07-26T17:03:49.355Z,98911.41
2023-07-26T17:06:35.843Z,98904.25
2023-07-26T17:09:22.836Z,98914.53
2023-07-26T17:12:09.370Z,98931.25
2023-07-26T17:14:55.765Z,98916.22
2023-07-26T17:17:42.484Z,98927.53
2023-07-26T17:20:28.769Z,98910.34
2023-07-26T17:23:15.570Z,98937.94
2023-07-26T17:26:02.539Z,98904.00
2023-07-26T17:28:48.813Z,98921.59
2023-07-26T17:31:35.110Z,98915.97
2023-07-26T17:34:21.543Z,98858.56
2023-07-26T17:37:08.127Z,98924.59
2023-07-26T17:39:54.775Z,98912.69
2023-07-26T17:42:41.482Z,98898.09
2023-07-26T17:45:27.957Z,98915.53
2023-07-26T17:48:14.353Z,98899.53
2023-07-26T17:51:01.286Z,98931.41
2023-07-26T17:53:47.770Z,98908.16
2023-07-26T17:56:34.093Z,98897.16
2023-07-26T17:59:20.461Z,98887.34
2023-07-26T18:02:07.890Z,98897.25
2023-07-26T18:04:54.272Z,98925.41
2023-07-26T18:07:40.634Z,98912.84
2023-07-26T18:10:27.201Z,98914.47
2023-07-26T18:13:13.480Z,98925.72
2023-07-26T18:16:16.711Z,98951.03
2023-07-26T18:19:03.361Z,98945.44
2023-07-26T18:21:49.762Z,98954.66
2023-07-26T18:24:36.217Z,98947.31
2023-07-26T18:27:22.546Z,98950.28
2023-07-26T18:30:09.596Z,98894.09
2023-07-26T18:32:56.125Z,98964.72
2023-07-26T18:35:42.341Z,98941.19
2023-07-26T18:38:30.433Z,98975.09
2023-07-26T18:41:16.876Z,98929.06
2023-07-26T18:44:03.348Z,98909.75
2023-07-26T18:46:49.769Z,98941.91
2023-07-26T18:49:36.478Z,98963.63
2023-07-26T18:52:22.741Z,98950.91
2023-07-26T18:55:09.037Z,98958.00
2023-07-26T18:57:55.308Z,98983.00
2023-07-26T19:00:41.863Z,98947.88
2023-07-26T19:03:28.187Z,98949.28
2023-07-26T19:06:14.910Z,98969.25
2023-07-26T19:09:01.069Z,98976.31
2023-07-26T19:11:49.983Z,98975.72
2023-07-26T19:14:36.525Z,99008.41
2023-07-26T19:17:23.082Z,99009.41
2023-07-26T19:20:09.940Z,99009.72
2023-07-26T19:22:56.265Z,99016.56
2023-07-26T19:25:42.583Z,98979.66
2023-07-26T19:28:29.246Z,99031.56
2023-07-26T19:31:15.804Z,99023.03
2023-07-26T19:34:02.075Z,99031.31
2023-07-26T19:36:48.551Z,98975.41
2023-07-26T19:39:35.337Z,99022.00
2023-07-26T19:42:22.095Z,98997.00
2023-07-26T19:45:08.915Z,99008.22
2023-07-26T19:47:55.459Z,98979.28
2023-07-26T19:50:41.673Z,98995.53
2023-07-26T19:53:28.494Z,99020.84
2023-07-26T19:56:14.990Z,98967.06
2023-07-26T19:59:01.276Z,98993.13
2023-07-26T20:01:47.943Z,98991.50
2023-07-26T20:04:37.572Z,99018.28
2023-07-26T20:07:23.767Z,99020.38
2023-07-26T20:10:10.550Z,99001.72
2023-07-26T20:12:56.741Z,99021.97
2023-07-26T20:15:44.087Z,99005.19
2023-07-26T20:18:30.454Z,98964.16
2023-07-26T20:21:16.946Z,99027.84
2023-07-26T20:24:04.214Z,99009.03
2023-07-26T20:26:50.709Z,99030.00
2023-07-26T20:29:38.598Z,99012.91
2023-07-26T20:32:24.832Z,99017.31
2023-07-26T20:35:11.455Z,98991.63
2023-07-26T20:37:58.337Z,99025.28
2023-07-26T20:40:49.417Z,99019.16
2023-07-26T20:43:35.651Z,99026.19
2023-07-26T20:46:22.275Z,99024.69
2023-07-26T20:49:08.528Z,98975.81
2023-07-26T20:51:54.999Z,98967.03
2023-07-26T20:54:41.379Z,99025.25
2023-07-26T20:57:28.062Z,98994.66
2023-07-26T21:00:14.905Z,99024.97
2023-07-26T21:03:01.541Z,98994.97
2023-07-26T21:05:48.764Z,99027.66
2023-07-26T21:08:35.003Z,98998.41
2023-07-26T21:11:21.250Z,98976.13
2023-07-26T21:14:08.082Z,99013.16
2023-07-26T21:16:54.824Z,99010.59
2023-07-26T21:19:41.172Z,98998.63
2023-07-26T21:22:27.996Z,98985.81
2023-07-26T21:25:14.270Z,98995.28
2023-07-26T21:28:00.702Z,98987.63
2023-07-26T21:30:51.141Z,98990.19
2023-07-26T21:33:37.904Z,99000.53
2023-07-26T21:36:25.834Z,98997.06
2023-07-26T21:39:12.469Z,99008.28
2023-07-26T21:41:58.952Z,98978.81
2023-07-26T21:44:45.465Z,98983.22
2023-07-26T21:47:33.211Z,98937.75
2023-07-26T21:50:19.995Z,98952.31
2023-07-26T21:53:06.169Z,98969.63
2023-07-26T21:55:52.621Z,98988.56
2023-07-26T21:58:38.969Z,98964.50
2023-07-26T22:01:25.504Z,98980.03
2023-07-26T22:04:11.897Z,98958.69
2023-07-26T22:06:58.589Z,98982.78
2023-07-26T22:09:45.154Z,98991.44
2023-07-26T22:12:31.589Z,98984.47
2023-07-26T22:15:17.785Z,98980.22
2023-07-26T22:18:04.667Z,98976.69
2023-07-26T22:23:52.774Z,98913.16
2023-07-26T22:26:39.141Z,98969.94
2023-07-26T22:29:25.400Z,98948.59
2023-07-26T22:32:14.602Z,98953.72
2023-07-26T22:35:01.040Z,98940.97
2023-07-26T22:37:47.309Z,98968.56
2023-07-26T22:40:34.094Z,98906.66
2023-07-26T22:43:20.607Z,98944.47
2023-07-26T22:46:07.885Z,98957.38
2023-07-26T22:48:55.166Z,98958.16
2023-07-26T22:51:41.449Z,98966.78
2023-07-26T22:54:27.797Z,98938.41
2023-07-26T22:57:14.390Z,98962.56
2023-07-26T23:00:00.916Z,98959.97
2023-07-26T23:02:47.557Z,98907.50
2023-07-26T23:05:34.107Z,98937.50
2023-07-26T23:08:20.604Z,98920.31
2023-07-26T23:11:08.032Z,98951.28
2023-07-26T23:13:54.844Z,98935.81
2023-07-26T23:16:41.168Z,98953.88
2023-07-26T23:19:27.733Z,98935.84
2023-07-26T23:22:14.255Z,98886.84
2023-07-26T23:25:00.852Z,98911.69
2023-07-26T23:27:47.825Z,98918.53
2023-07-26T23:30:34.394Z,98954.66
2023-07-26T23:33:21.292Z,98949.38
2023-07-26T23:36:07.807Z,98929.53
2023-07-26T23:38:54.133Z,98938.06
2023-07-26T23:41:40.416Z,98937.94
2023-07-26T23:44:26.701Z,98935.28
2023-07-26T23:47:13.202Z,98935.94
2023-07-26T23:49:59.648Z,98931.66
2023-07-26T23:52:46.189Z,98930.72
2023-07-26T23:55:32.543Z,98922.94
2023-07-26T23:58:18.942Z,98918.63
